Flood From: 24-02-2018 06:00 Until: 25-02-2018 06:00 warning for: Flood Level: Yellow info button

Although rather usual in this region, locally or potentially dangerous phenomena are expected. (such as local winds, summer thunderstorms, rising streams or high waves) Be aware and pay attention to the latest weather updates, especially if you carry out activities exposed to weather or close to a stream or shoreline. 


Meteo18 Weather Cam more information Meteo18 Weather Cam


Thunder radar more information blitzortung!


Rain radar more information rain snow radar


Visit our other weather sites:

Template documentation
and downloads

And another site



Weather Underground History page Text

Daily Summary for April 20, 2017 Units:  Metric    English   Both
« Previous Day
Next Day »
Daily Weekly Monthly Yearly Custom
  High: Low: Average:
Temperature: -17.8 °C -18.1 °C -14.3 °C
Dew Point: -17.8 °C -20.7 °C -19.7 °C
Humidity: Humidity % 35 % 52 %
Wind Speed: 0 km/h 0 km/h 16.1 km/h
Wind Gust: 0 km/h - -
Wind:- - NE
Pressure: 0 hPa 34957.1 hPa -
Precipitation: 0 mm    
Historical Graphs
 
 
Tabular Data for April 20, 2017
Time Temperature Dew Point Pressure Wind Wind Speed Wind Gust Humidity Rainfall Rate (Hourly)
-17.8 °C -17.8 °C 0 hPa Calm     Humidity % 0 mm
00:02 -15.6 °C -19.8 °C 34980.8 hPa NE 10.3 km/h 15.6 km/h 58 % 0 mm
00:07 -15.6 °C -19.8 °C 34980.8 hPa NE 10.3 km/h 18.2 km/h 58 % 0 mm
00:12 -15.7 °C -19.7 °C 34980.8 hPa NNE 10.3 km/h 18.2 km/h 59 % 0 mm
00:17 -15.7 °C -19.7 °C 34980.8 hPa NNE 12.9 km/h 18.2 km/h 59 % 0 mm
00:22 -15.7 °C -19.8 °C 34980.8 hPa NE 7.7 km/h 20.8 km/h 59 % 0 mm
00:27 -15.8 °C -19.7 °C 34980.8 hPa NE 5.1 km/h 20.8 km/h 60 % 0 mm
00:32 -15.8 °C -19.7 °C 34980.8 hPa NE 5.1 km/h 20.8 km/h 60 % 0 mm
00:37 -15.9 °C -19.7 °C 34980.8 hPa ENE 10.3 km/h 20.8 km/h 61 % 0 mm
00:42 -15.9 °C -19.7 °C 34980.8 hPa NE 5.1 km/h 20.8 km/h 61 % 0 mm
00:47 -16 °C -19.8 °C 34990.9 hPa NE 10.3 km/h 20.8 km/h 61 % 0 mm
00:52 -16.1 °C -19.8 °C 34990.9 hPa NE 5.1 km/h 20.8 km/h 61 % 0 mm
00:57 -16.2 °C -19.9 °C 34990.9 hPa NE 7.7 km/h 12.9 km/h 61 % 0 mm
01:02 -16.1 °C -19.8 °C 34990.9 hPa NNE 5.1 km/h 12.9 km/h 61 % 0 mm
01:07 -16.1 °C -19.9 °C 34990.9 hPa NE 7.7 km/h 18.2 km/h 60 % 0 mm
01:12 -16.1 °C -19.9 °C 34990.9 hPa NE 7.7 km/h 18.2 km/h 60 % 0 mm
01:17 -16.1 °C -20 °C 34990.9 hPa NE 2.6 km/h 12.9 km/h 60 % 0 mm
01:22 -16.2 °C -20.1 °C 34990.9 hPa NE 2.6 km/h 12.9 km/h 60 % 0 mm
01:32 -16.2 °C -20.1 °C 34990.9 hPa NNE 5.1 km/h 12.9 km/h 60 % 0 mm
01:37 -16.2 °C -20.1 °C 34990.9 hPa NE 7.7 km/h 18.2 km/h 60 % 0 mm
01:42 -16.2 °C -20.1 °C 34990.9 hPa ENE 2.6 km/h 18.2 km/h 60 % 0 mm
01:47 -16.2 °C -20.1 °C 34990.9 hPa Calm   18.2 km/h 60 % 0 mm
01:52 -16.2 °C -20.1 °C 34990.9 hPa Calm   18.2 km/h 60 % 0 mm
01:57 -16.3 °C -20.2 °C 34990.9 hPa Calm   12.9 km/h 60 % 0 mm
02:02 -16.4 °C -20.2 °C 34990.9 hPa NE 5.1 km/h 12.9 km/h 61 % 0 mm
02:07 -16.6 °C -20.2 °C 34990.9 hPa NE 5.1 km/h 10.3 km/h 62 % 0 mm
02:12 -16.6 °C -20.2 °C 34990.9 hPa NE 7.7 km/h 10.3 km/h 62 % 0 mm
02:17 -16.6 °C -20.2 °C 34990.9 hPa NNE 7.7 km/h 18.2 km/h 62 % 0 mm
02:22 -16.6 °C -20.2 °C 34990.9 hPa NNE 5.1 km/h 18.2 km/h 62 % 0 mm
02:32 -16.6 °C -20.2 °C 34990.9 hPa Calm   18.2 km/h 62 % 0 mm
02:37 -16.7 °C -20.3 °C 34990.9 hPa NNE 5.1 km/h 10.3 km/h 62 % 0 mm
02:47 -16.8 °C -20.2 °C 34990.9 hPa North 2.6 km/h 5.1 km/h 64 % 0 mm
02:52 -16.9 °C -20.2 °C 34990.9 hPa NNE 2.6 km/h 5.1 km/h 65 % 0 mm
02:57 -17.1 °C -20.3 °C 34990.9 hPa NNE 5.1 km/h 10.3 km/h 65 % 0 mm
03:02 -17.1 °C -20.2 °C 34990.9 hPa NNE 2.6 km/h 10.3 km/h 66 % 0 mm
03:07 -17.1 °C -20.2 °C 34990.9 hPa NW 2.6 km/h 10.3 km/h 66 % 0 mm
03:12 -17.1 °C -20.2 °C 34990.9 hPa NNW 5.1 km/h 10.3 km/h 66 % 0 mm
03:17 -17.1 °C -20.2 °C 34990.9 hPa NNE 10.3 km/h 15.6 km/h 66 % 0 mm
03:22 -17.2 °C -20.3 °C 34990.9 hPa NE 7.7 km/h 15.6 km/h 66 % 0 mm
03:27 -17.2 °C -20.3 °C 34990.9 hPa North 2.6 km/h 12.9 km/h 66 % 0 mm
03:32 -17.2 °C -20.3 °C 34990.9 hPa ENE 5.1 km/h 12.9 km/h 66 % 0 mm
03:37 -17.2 °C -20.3 °C 34990.9 hPa Calm   15.6 km/h 66 % 0 mm
03:42 -17.2 °C -20.3 °C 34990.9 hPa Calm   15.6 km/h 66 % 0 mm
03:47 -17.3 °C -20.4 °C 34990.9 hPa NNE 7.7 km/h 12.9 km/h 66 % 0 mm
03:52 -17.3 °C -20.3 °C 34990.9 hPa Calm   12.9 km/h 67 % 0 mm
03:57 -17.3 °C -20.3 °C 34990.9 hPa NNE 2.6 km/h 10.3 km/h 67 % 0 mm
04:02 -17.4 °C -20.3 °C 34990.9 hPa Calm   10.3 km/h 68 % 0 mm
04:12 -17.4 °C -20.2 °C 34990.9 hPa NW 2.6 km/h 10.3 km/h 69 % 0 mm
04:17 -17.4 °C -20.3 °C 34990.9 hPa North 18.2 km/h 18.2 km/h 68 % 0 mm
04:22 -17.2 °C -20.2 °C 34990.9 hPa Calm   18.2 km/h 67 % 0 mm
04:32 -17.1 °C -20.4 °C 34990.9 hPa NNE 15.6 km/h 23.3 km/h 65 % 0 mm
04:37 -17.1 °C -20.3 °C 34990.9 hPa NNE 23.3 km/h 25.9 km/h 65 % 0 mm
04:42 -17.1 °C -20.4 °C 34990.9 hPa NE 12.9 km/h 25.9 km/h 65 % 0 mm
04:47 -17.1 °C -20.2 °C 34990.9 hPa NE 15.6 km/h 28.5 km/h 66 % 0 mm
04:52 -17.2 °C -20.3 °C 34990.9 hPa NNE 7.7 km/h 28.5 km/h 66 % 0 mm
05:02 -17.3 °C -20.4 °C 34990.9 hPa NE 15.6 km/h 28.5 km/h 66 % 0 mm
05:07 -17.3 °C -20.4 °C 34990.9 hPa NE 12.9 km/h 20.8 km/h 66 % 0 mm
05:17 -17.3 °C -20.3 °C 34990.9 hPa NE 5.1 km/h 20.8 km/h 67 % 0 mm
05:22 -17.3 °C -20.3 °C 34990.9 hPa NE 10.3 km/h 20.8 km/h 67 % 0 mm
05:32 -17.5 °C -20.4 °C 34990.9 hPa NNW 2.6 km/h 20.8 km/h 68 % 0 mm
05:42 -17.7 °C -20.3 °C 34990.9 hPa NNE 7.7 km/h 18.2 km/h 70 % 0 mm
05:52 -17.8 °C -20.4 °C 34990.9 hPa NE 5.1 km/h 15.6 km/h 71 % 0 mm
06:02 -17.9 °C -20.3 °C 34990.9 hPa North 2.6 km/h 12.9 km/h 72 % 0 mm
06:07 -17.9 °C -20.3 °C 34990.9 hPa NE 2.6 km/h 12.9 km/h 72 % 0 mm
06:12 -17.9 °C -20.4 °C 35001.1 hPa Calm   12.9 km/h 72 % 0 mm
06:17 -17.9 °C -20.3 °C 34990.9 hPa Calm   12.9 km/h 73 % 0 mm
06:22 -17.9 °C -20.3 °C 34990.9 hPa NNE 2.6 km/h 12.9 km/h 73 % 0 mm
06:32 -18.1 °C -20.4 °C 34990.9 hPa NNE 10.3 km/h 10.3 km/h 73 % 0 mm
06:42 -17.9 °C -20.2 °C 35001.1 hPa NNE 10.3 km/h 15.6 km/h 74 % 0 mm
06:52 -17.7 °C -20.2 °C 35001.1 hPa NNE 5.1 km/h 18.2 km/h 72 % 0 mm
06:57 -17.8 °C -20.3 °C 35001.1 hPa NE 5.1 km/h 20.8 km/h 72 % 0 mm
07:02 -17.9 °C -20.3 °C 35001.1 hPa North 12.9 km/h 20.8 km/h 73 % 0 mm
07:12 -17.8 °C -20.2 °C 35001.1 hPa North 2.6 km/h 18.2 km/h 73 % 0 mm
07:17 -17.8 °C -20.2 °C 35001.1 hPa NNE 7.7 km/h 18.2 km/h 73 % 0 mm
07:22 -17.8 °C -20.2 °C 35001.1 hPa Calm   18.2 km/h 73 % 0 mm
07:32 -17.7 °C -20.1 °C 35014.6 hPa NNE 10.3 km/h 20.8 km/h 73 % 0 mm
07:42 -17.6 °C -20.1 °C 35014.6 hPa North 15.6 km/h 18.2 km/h 72 % 0 mm
07:52 -17.4 °C -20 °C 35024.8 hPa NE 5.1 km/h 20.8 km/h 71 % 0 mm
08:02 -17.3 °C -20 °C 35024.8 hPa NE 18.2 km/h 18.2 km/h 70 % 0 mm
08:07 -17.1 °C -19.9 °C 35038.3 hPa NE 15.6 km/h 28.5 km/h 69 % 0 mm
08:12 -17 °C -19.9 °C 35038.3 hPa NE 20.8 km/h 28.5 km/h 68 % 0 mm
08:17 -16.9 °C -19.9 °C 35038.3 hPa NE 20.8 km/h 28.5 km/h 67 % 0 mm
08:22 -16.8 °C -19.9 °C 35038.3 hPa NE 18.2 km/h 28.5 km/h 66 % 0 mm
08:32 -16.7 °C -19.9 °C 35038.3 hPa North 15.6 km/h 31.1 km/h 65 % 0 mm
08:42 -16.5 °C -19.9 °C 35048.5 hPa NNE 10.3 km/h 31.1 km/h 64 % 0 mm
08:52 -16.3 °C -19.7 °C 35048.5 hPa East 12.9 km/h 31.1 km/h 64 % 0 mm
09:02 -16.3 °C -19.7 °C 35048.5 hPa NNE 15.6 km/h 33.6 km/h 64 % 0 mm
09:12 -16.2 °C -19.7 °C 35048.5 hPa NE 12.9 km/h 33.6 km/h 63 % 0 mm
09:17 -16.2 °C -19.6 °C 35058.6 hPa NE 10.3 km/h 33.6 km/h 64 % 0 mm
09:22 -16.1 °C -19.6 °C 35058.6 hPa East 12.9 km/h 33.6 km/h 63 % 0 mm
09:32 -15.9 °C -19.5 °C 35058.6 hPa NE 31.1 km/h 33.6 km/h 63 % 0 mm
09:37 -15.9 °C -19.4 °C 35048.5 hPa NE 18.2 km/h 44.1 km/h 63 % 0 mm
09:42 -15.9 °C -19.4 °C 35048.5 hPa NNE 18.2 km/h 44.1 km/h 63 % 0 mm
09:47 -15.8 °C -19.2 °C 35048.5 hPa NE 12.9 km/h 36.2 km/h 64 % 0 mm
09:52 -15.7 °C -19.3 °C 35048.5 hPa NE 20.8 km/h 36.2 km/h 62 % 0 mm
09:57 -15.5 °C -19.3 °C 35048.5 hPa ENE 15.6 km/h 36.2 km/h 61 % 0 mm
10:02 -15.4 °C -19.4 °C 35048.5 hPa NNE 28.5 km/h 36.2 km/h 59 % 0 mm
10:12 -15.3 °C -19.7 °C 35048.5 hPa NE 15.6 km/h 41.4 km/h 56 % 0 mm
10:17 -15.1 °C -19.6 °C 35048.5 hPa East 23.3 km/h 49.2 km/h 56 % 0 mm
10:22 -15 °C -19.5 °C 35048.5 hPa ENE 25.9 km/h 49.2 km/h 56 % 0 mm
10:32 -14.8 °C -19.9 °C 35048.5 hPa ENE 38.8 km/h 46.7 km/h 51 % 0 mm
10:42 -14.8 °C -19.8 °C 35048.5 hPa East 31.1 km/h 51.8 km/h 52 % 0 mm
10:52 -14.6 °C -19.9 °C 35038.3 hPa ENE 36.2 km/h 51.8 km/h 50 % 0 mm
10:57 -14.6 °C -20.1 °C 35048.5 hPa NE 15.6 km/h 54.4 km/h 49 % 0 mm
11:02 -14.4 °C -20.2 °C 35048.5 hPa ENE 23.3 km/h 54.4 km/h 47 % 0 mm
11:12 -14.3 °C -20.4 °C 35048.5 hPa NNE 49.2 km/h 59.5 km/h 45 % 0 mm
11:17 -14.2 °C -20.3 °C 35038.3 hPa NE 33.6 km/h 59.5 km/h 45 % 0 mm
11:22 -14.1 °C -20.4 °C 35048.5 hPa ENE 31.1 km/h 59.5 km/h 44 % 0 mm
11:32 -13.8 °C -20.6 °C 35038.3 hPa NE 31.1 km/h 57 km/h 42 % 0 mm
11:42 -13.9 °C -20.6 °C 35048.5 hPa NE 51.8 km/h 51.8 km/h 42 % 0 mm
11:47 -13.9 °C -20.2 °C 35048.5 hPa ENE 20.8 km/h 59.5 km/h 44 % 0 mm
11:52 -13.8 °C -20.7 °C 35048.5 hPa NE 33.6 km/h 59.5 km/h 41 % 0 mm
12:02 -13.8 °C -20.7 °C 35038.3 hPa NE 20.8 km/h 57 km/h 41 % 0 mm
12:12 -13.6 °C -20.4 °C 35038.3 hPa ENE 36.2 km/h 54.4 km/h 41 % 0 mm
12:17 -13.4 °C -20.3 °C 35038.3 hPa East 20.8 km/h 51.8 km/h 41 % 0 mm
12:22 -13.4 °C -20.3 °C 35038.3 hPa NE 33.6 km/h 51.8 km/h 41 % 0 mm
12:32 -13.2 °C -20.3 °C 35038.3 hPa ENE 49.2 km/h 51.8 km/h 40 % 0 mm
12:42 -13.1 °C -20.1 °C 35038.3 hPa NE 12.9 km/h 57 km/h 41 % 0 mm
12:47 -12.9 °C -20.1 °C 35024.8 hPa NNW 23.3 km/h 57 km/h 40 % 0 mm
12:52 -13 °C -20.3 °C 35024.8 hPa NE 31.1 km/h 57 km/h 39 % 0 mm
13:02 -12.9 °C -20.6 °C 35024.8 hPa NNE 41.4 km/h 46.7 km/h 37 % 0 mm
13:07 -12.8 °C -19.8 °C 35024.8 hPa NNE 41.4 km/h 46.7 km/h 41 % 0 mm
13:12 -12.9 °C -20.1 °C 35024.8 hPa NNE 20.8 km/h 46.7 km/h 40 % 0 mm
13:17 -12.8 °C -20 °C 35024.8 hPa ENE 18.2 km/h 59.5 km/h 40 % 0 mm
13:22 -12.7 °C -19.9 °C 35024.8 hPa NE 33.6 km/h 59.5 km/h 40 % 0 mm
13:32 -12.7 °C -20 °C 35024.8 hPa NNE 23.3 km/h 49.2 km/h 39 % 0 mm
13:37 -12.6 °C -20.2 °C 35024.8 hPa ENE 28.5 km/h 51.8 km/h 38 % 0 mm
13:42 -12.5 °C -19.9 °C 35014.6 hPa NNE 28.5 km/h 51.8 km/h 39 % 0 mm
13:47 -12.4 °C -19.6 °C 35014.6 hPa NE 28.5 km/h 51.8 km/h 40 % 0 mm
13:52 -12.5 °C -19.9 °C 35014.6 hPa NNE 51.8 km/h 51.8 km/h 39 % 0 mm
14:02 -12.3 °C -19.1 °C 35014.6 hPa NNE 23.3 km/h 51.8 km/h 42 % 0 mm
14:07 -12.3 °C -19.1 °C 35014.6 hPa NNE 18.2 km/h 54.4 km/h 42 % 0 mm
14:12 -12.2 °C -19 °C 35014.6 hPa NNE 23.3 km/h 54.4 km/h 42 % 0 mm
14:17 -12.3 °C -19.1 °C 35014.6 hPa NE 23.3 km/h 44.1 km/h 42 % 0 mm
14:22 -12.3 °C -19.3 °C 35014.6 hPa NNE 28.5 km/h 44.1 km/h 41 % 0 mm
14:27 -12.2 °C -19.2 °C 35014.6 hPa NE 15.6 km/h 59.5 km/h 41 % 0 mm
14:32 -12.1 °C -19.2 °C 35014.6 hPa NE 23.3 km/h 59.5 km/h 41 % 0 mm
14:37 -12.3 °C -19.3 °C 35014.6 hPa NNE 31.1 km/h 46.7 km/h 41 % 0 mm
14:42 -12.1 °C -18.7 °C 35014.6 hPa North 15.6 km/h 46.7 km/h 43 % 0 mm
14:47 -12 °C -19.1 °C 35014.6 hPa NNE 46.7 km/h 49.2 km/h 41 % 0 mm
14:52 -12.1 °C -19.3 °C 35014.6 hPa ENE 15.6 km/h 49.2 km/h 40 % 0 mm
14:57 -11.9 °C -18.6 °C 35014.6 hPa ENE 23.3 km/h 49.2 km/h 43 % 0 mm
15:02 -11.9 °C -19 °C 35014.6 hPa NNE 20.8 km/h 49.2 km/h 41 % 0 mm
15:07 -12 °C -19.1 °C 35001.1 hPa NE 28.5 km/h 46.7 km/h 41 % 0 mm
15:12 -12.1 °C -19.1 °C 35001.1 hPa NNE 33.6 km/h 46.7 km/h 41 % 0 mm
15:17 -11.9 °C -19 °C 35001.1 hPa NNW 25.9 km/h 46.7 km/h 41 % 0 mm
15:22 -11.9 °C -18.8 °C 35001.1 hPa NNE 23.3 km/h 46.7 km/h 42 % 0 mm
15:27 -11.9 °C -18.9 °C 35001.1 hPa NE 20.8 km/h 46.7 km/h 41 % 0 mm
15:32 -11.8 °C -18.7 °C 35001.1 hPa NNE 38.8 km/h 46.7 km/h 42 % 0 mm
15:37 -11.8 °C -19.3 °C 35001.1 hPa NE 25.9 km/h 49.2 km/h 39 % 0 mm
15:42 -11.7 °C -18.6 °C 34990.9 hPa NNE 5.1 km/h 49.2 km/h 42 % 0 mm
15:47 -11.7 °C -19.4 °C 34990.9 hPa NE 31.1 km/h 49.2 km/h 38 % 0 mm
15:52 -11.7 °C -19.1 °C 34990.9 hPa NE 31.1 km/h 49.2 km/h 39 % 0 mm
15:57 -11.6 °C -19.1 °C 34990.9 hPa NE 15.6 km/h 46.7 km/h 39 % 0 mm
16:02 -11.6 °C -19.2 °C 34990.9 hPa NNW 25.9 km/h 46.7 km/h 38 % 0 mm
16:07 -11.7 °C -18.8 °C 34990.9 hPa North 18.2 km/h 54.4 km/h 41 % 0 mm
16:12 -11.7 °C -18.6 °C 34980.8 hPa NNE 10.3 km/h 54.4 km/h 42 % 0 mm
16:17 -11.7 °C -19.3 °C 34990.9 hPa NE 36.2 km/h 54.4 km/h 38 % 0 mm
16:22 -11.7 °C -19 °C 34990.9 hPa ENE 15.6 km/h 54.4 km/h 40 % 0 mm
16:27 -11.6 °C -19.7 °C 34980.8 hPa NE 15.6 km/h 54.4 km/h 36 % 0 mm
16:32 -11.4 °C -19.1 °C 34980.8 hPa East 25.9 km/h 54.4 km/h 38 % 0 mm
16:37 -11.4 °C -19.3 °C 34980.8 hPa North 36.2 km/h 51.8 km/h 37 % 0 mm
16:42 -11.7 °C -19.3 °C 34980.8 hPa NE 31.1 km/h 51.8 km/h 38 % 0 mm
16:47 -11.5 °C -19.4 °C 34980.8 hPa NNE 38.8 km/h 51.8 km/h 37 % 0 mm
16:52 -11.6 °C -19.6 °C 34980.8 hPa NE 36.2 km/h 51.8 km/h 36 % 0 mm
16:57 -11.5 °C -19.6 °C 34980.8 hPa NE 20.8 km/h 46.7 km/h 36 % 0 mm
17:02 -11.4 °C -19.3 °C 34980.8 hPa NNE 23.3 km/h 46.7 km/h 37 % 0 mm
17:07 -11.4 °C -19.3 °C 34980.8 hPa NE 15.6 km/h 41.4 km/h 37 % 0 mm
17:17 -11.4 °C -19.3 °C 34967.2 hPa NE 31.1 km/h 41.4 km/h 37 % 0 mm
17:22 -11.3 °C -19.2 °C 34967.2 hPa ENE 12.9 km/h 41.4 km/h 37 % 0 mm
17:27 -11.3 °C -19.4 °C 34967.2 hPa NE 33.6 km/h 38.8 km/h 36 % 0 mm
17:32 -11.4 °C -19.6 °C 34967.2 hPa NNE 31.1 km/h 38.8 km/h 36 % 0 mm
17:37 -11.3 °C -18.8 °C 34967.2 hPa NE 25.9 km/h 41.4 km/h 39 % 0 mm
17:42 -11.3 °C -19.4 °C 34967.2 hPa ENE 18.2 km/h 41.4 km/h 36 % 0 mm
17:47 -11.5 °C -19.6 °C 34967.2 hPa ENE 15.6 km/h 41.4 km/h 36 % 0 mm
17:52 -11.5 °C -19.6 °C 34967.2 hPa NE 25.9 km/h 41.4 km/h 36 % 0 mm
17:57 -11.4 °C -19.5 °C 34967.2 hPa ENE 18.2 km/h 41.4 km/h 36 % 0 mm
18:02 -11.4 °C -19.7 °C 34967.2 hPa NE 23.3 km/h 41.4 km/h 35 % 0 mm
18:07 -11.4 °C -19.3 °C 34967.2 hPa NNE 36.2 km/h 44.1 km/h 37 % 0 mm
18:12 -11.4 °C -19.6 °C 34967.2 hPa NE 12.9 km/h 44.1 km/h 36 % 0 mm
18:17 -11.4 °C -19.3 °C 34967.2 hPa NNE 12.9 km/h 44.1 km/h 37 % 0 mm
18:22 -11.4 °C -19.6 °C 34967.2 hPa East 23.3 km/h 38.8 km/h 36 % 0 mm
18:27 -11.5 °C -19.6 °C 34967.2 hPa ENE 18.2 km/h 38.8 km/h 36 % 0 mm
18:32 -11.5 °C -19.6 °C 34967.2 hPa ESE 20.8 km/h 46.7 km/h 36 % 0 mm
18:37 -11.5 °C -19.2 °C 34967.2 hPa NNE 28.5 km/h 46.7 km/h 38 % 0 mm
18:42 -11.5 °C -19.2 °C 34967.2 hPa NE 10.3 km/h 44.1 km/h 38 % 0 mm
18:47 -11.4 °C -19.3 °C 34967.2 hPa ENE 28.5 km/h 36.2 km/h 37 % 0 mm
18:52 -11.5 °C -19.4 °C 34967.2 hPa NNE 12.9 km/h 36.2 km/h 37 % 0 mm
18:57 -11.6 °C -19.4 °C 34967.2 hPa ENE 23.3 km/h 36.2 km/h 37 % 0 mm
19:07 -11.6 °C -19.1 °C 34967.2 hPa NE 25.9 km/h 38.8 km/h 39 % 0 mm
19:12 -11.7 °C -19.1 °C 34967.2 hPa NE 25.9 km/h 38.8 km/h 39 % 0 mm
19:17 -11.8 °C -19.2 °C 34967.2 hPa NE 18.2 km/h 44.1 km/h 39 % 0 mm
19:22 -11.8 °C -19.2 °C 34957.1 hPa ENE 12.9 km/h 44.1 km/h 39 % 0 mm
19:27 -11.8 °C -19.1 °C 34967.2 hPa NNE 31.1 km/h 41.4 km/h 40 % 0 mm
19:32 -11.8 °C -19.3 °C 34957.1 hPa NE 20.8 km/h 41.4 km/h 39 % 0 mm
19:37 -11.9 °C -19.1 °C 34957.1 hPa NE 12.9 km/h 41.4 km/h 40 % 0 mm
19:42 -11.9 °C -19.1 °C 34957.1 hPa NNE 20.8 km/h 41.4 km/h 40 % 0 mm
19:47 -11.9 °C -19.4 °C 34957.1 hPa NE 18.2 km/h 33.6 km/h 39 % 0 mm
19:52 -11.9 °C -19.3 °C 34957.1 hPa NE 15.6 km/h 33.6 km/h 39 % 0 mm
19:57 -12 °C -19.1 °C 34957.1 hPa NNE 20.8 km/h 41.4 km/h 41 % 0 mm
20:02 -12.1 °C -19.3 °C 34957.1 hPa NE 25.9 km/h 41.4 km/h 40 % 0 mm
20:07 -12.1 °C -19.3 °C 34957.1 hPa NE 31.1 km/h 36.2 km/h 40 % 0 mm
20:12 -12.1 °C -19.2 °C 34957.1 hPa NNE 18.2 km/h 36.2 km/h 41 % 0 mm
20:17 -12.2 °C -19.3 °C 34957.1 hPa NNE 15.6 km/h 36.2 km/h 41 % 0 mm
20:22 -12.3 °C -19.2 °C 34957.1 hPa NE 28.5 km/h 36.2 km/h 42 % 0 mm
20:32 -12.5 °C -19.2 °C 34957.1 hPa NE 18.2 km/h 31.1 km/h 43 % 0 mm
20:37 -12.7 °C -19.3 °C 34967.2 hPa NNE 23.3 km/h 31.1 km/h 43 % 0 mm
20:42 -12.7 °C -19.2 °C 34967.2 hPa NNE 7.7 km/h 31.1 km/h 44 % 0 mm
20:47 -12.8 °C -19.1 °C 34967.2 hPa NNE 2.6 km/h 28.5 km/h 45 % 0 mm
20:57 -13 °C -19.1 °C 34967.2 hPa NNE 12.9 km/h 15.6 km/h 46 % 0 mm
21:02 -13.2 °C -19.1 °C 34967.2 hPa North 7.7 km/h 15.6 km/h 47 % 0 mm
21:07 -13.3 °C -19.1 °C 34967.2 hPa NNE 2.6 km/h 18.2 km/h 48 % 0 mm
21:12 -13.4 °C -19.2 °C 34967.2 hPa Calm   18.2 km/h 48 % 0 mm
21:17 -13.6 °C -19.1 °C 34967.2 hPa NE 2.6 km/h 18.2 km/h 49 % 0 mm
21:22 -13.7 °C -19.1 °C 34967.2 hPa NNE 2.6 km/h 18.2 km/h 50 % 0 mm
21:27 -13.7 °C -19.1 °C 34967.2 hPa Calm   15.6 km/h 50 % 0 mm
21:32 -13.8 °C -19.1 °C 34967.2 hPa Calm   15.6 km/h 51 % 0 mm
21:37 -13.8 °C -19.1 °C 34967.2 hPa North 2.6 km/h 10.3 km/h 51 % 0 mm
21:42 -13.9 °C -19.1 °C 34967.2 hPa NNE 7.7 km/h 10.3 km/h 52 % 0 mm
21:47 -13.9 °C -19.1 °C 34967.2 hPa Calm   18.2 km/h 52 % 0 mm
21:52 -13.9 °C -19 °C 34980.8 hPa NE 5.1 km/h 18.2 km/h 52 % 0 mm
22:02 -13.8 °C -18.9 °C 34980.8 hPa NE 7.7 km/h 28.5 km/h 52 % 0 mm
22:07 -13.9 °C -19 °C 34967.2 hPa NE 10.3 km/h 23.3 km/h 52 % 0 mm
22:12 -13.9 °C -19.1 °C 34967.2 hPa NNE 7.7 km/h 23.3 km/h 52 % 0 mm
22:17 -13.8 °C -18.9 °C 34967.2 hPa NE 5.1 km/h 31.1 km/h 52 % 0 mm
22:22 -13.8 °C -19.1 °C 34980.8 hPa NE 10.3 km/h 31.1 km/h 51 % 0 mm
22:27 -13.8 °C -19.1 °C 34980.8 hPa NE 20.8 km/h 31.1 km/h 51 % 0 mm
22:32 -13.7 °C -18.9 °C 34980.8 hPa NE 20.8 km/h 31.1 km/h 51 % 0 mm
22:37 -13.6 °C -19.1 °C 34980.8 hPa NNE 23.3 km/h 36.2 km/h 50 % 0 mm
22:42 -13.7 °C -19.1 °C 34980.8 hPa NNE 7.7 km/h 36.2 km/h 50 % 0 mm
22:47 -13.8 °C -18.9 °C 34980.8 hPa NNE 7.7 km/h 36.2 km/h 52 % 0 mm
22:52 -13.9 °C -18.9 °C 34980.8 hPa North 5.1 km/h 36.2 km/h 53 % 0 mm
22:57 -14 °C -18.9 °C 34980.8 hPa NE 12.9 km/h 28.5 km/h 53 % 0 mm
23:02 -14.1 °C -19 °C 34980.8 hPa NE 7.7 km/h 28.5 km/h 53 % 0 mm
23:07 -14.1 °C -19.2 °C 34980.8 hPa North 15.6 km/h 33.6 km/h 52 % 0 mm
23:12 -14 °C -19.1 °C 34980.8 hPa NNE 12.9 km/h 33.6 km/h 52 % 0 mm
23:17 -14.1 °C -19.2 °C 34980.8 hPa NNE 2.6 km/h 33.6 km/h 52 % 0 mm
23:22 -14.1 °C -19.1 °C 34980.8 hPa NNE 7.7 km/h 33.6 km/h 53 % 0 mm
23:32 -14.2 °C -19 °C 34980.8 hPa NNE 2.6 km/h 28.5 km/h 54 % 0 mm
23:37 -14.3 °C -18.9 °C 34980.8 hPa NE 12.9 km/h 18.2 km/h 55 % 0 mm
23:42 -14.2 °C -19 °C 34980.8 hPa NNE 18.2 km/h 18.2 km/h 54 % 0 mm
23:47 -14.1 °C -18.9 °C 34980.8 hPa North 10.3 km/h 31.1 km/h 54 % 0 mm
23:52 -14.1 °C -19 °C 34980.8 hPa NNE 25.9 km/h 31.1 km/h 53 % 0 mm
Meteo18
Compliments of Weather Underground - 4 mb

Script developed by  Jim McMurry - jmcmurry@mwt.net Adapted for the template by  Wim van der Kuil - Leuven-Template.eu

You find our weather info also at:

European Weather Network

Weather Underground

Equipment we use:

Weather-station
Davis Vue

Weather-program
Meteobridge

Weather-server
Raspberry PI 2 B+

Provider
1 and 1

Davis Vue

Meteobridge

Raspberry PI 2 B+

1 and 1